createdAt,value
2022-12-31T00:01:18.029Z,100701.75
2022-12-31T00:04:21.858Z,100697.19
2022-12-31T00:07:25.566Z,100715.44
2022-12-31T00:10:29.626Z,100721.84
2022-12-31T00:13:34.985Z,100721.81
2022-12-31T00:16:40.783Z,100709.31
2022-12-31T00:19:44.487Z,100719.75
2022-12-31T00:22:48.305Z,100725.44
2022-12-31T00:25:51.818Z,100717.16
2022-12-31T00:28:59.255Z,100716.91
2022-12-31T00:32:03.130Z,100736.47
2022-12-31T00:35:07.806Z,100734.59
2022-12-31T00:38:11.595Z,100743.16
2022-12-31T00:41:16.394Z,100735.25
2022-12-31T00:44:21.909Z,100737.91
2022-12-31T00:47:26.687Z,100737.56
2022-12-31T00:50:30.421Z,100744.41
2022-12-31T00:53:34.588Z,100728.31
2022-12-31T00:56:38.490Z,100742.19
2022-12-31T00:59:43.527Z,100747.41
2022-12-31T01:02:47.453Z,100749.06
2022-12-31T01:05:51.707Z,100751.75
2022-12-31T01:08:56.648Z,100751.53
2022-12-31T01:12:00.449Z,100749.09
2022-12-31T01:15:06.523Z,100756.22
2022-12-31T01:18:10.828Z,100771.84
2022-12-31T01:21:15.495Z,100747.13
2022-12-31T01:24:19.966Z,100747.19
2022-12-31T01:27:26.761Z,100740.34
2022-12-31T01:30:33.561Z,100738.41
2022-12-31T01:33:37.551Z,100737.09
2022-12-31T01:36:41.691Z,100736.75
2022-12-31T01:39:45.271Z,100728.97
2022-12-31T01:42:55.866Z,100732.47
2022-12-31T01:46:01.076Z,100738.22
2022-12-31T01:49:10.944Z,100742.19
2022-12-31T01:52:19.912Z,100741.28
2022-12-31T01:55:27.894Z,100750.69
2022-12-31T01:58:38.228Z,100754.19
2022-12-31T02:01:43.764Z,100748.22
2022-12-31T02:04:48.726Z,100744.59
2022-12-31T02:07:53.485Z,100752.38
2022-12-31T02:10:57.352Z,100745.44
2022-12-31T02:14:05.927Z,100748.97
2022-12-31T02:17:18.472Z,100737.56
2022-12-31T02:20:47.900Z,100736.16
2022-12-31T02:24:14.566Z,100733.69
2022-12-31T02:27:32.972Z,100734.03
2022-12-31T02:30:39.918Z,100730.53
2022-12-31T02:33:52.526Z,100736.19
2022-12-31T02:36:59.840Z,100735.06
2022-12-31T02:40:04.051Z,100731.09
2022-12-31T02:43:07.928Z,100729.50
2022-12-31T02:46:22.568Z,100735.06
2022-12-31T02:49:35.842Z,100735.25
2022-12-31T02:52:48.507Z,100733.22
2022-12-31T02:55:57.469Z,100746.09
2022-12-31T02:59:22.638Z,100750.00
2022-12-31T03:02:31.622Z,100765.75
2022-12-31T03:05:39.152Z,100762.69
2022-12-31T03:08:57.772Z,100764.72
2022-12-31T03:12:19.473Z,100755.75
2022-12-31T03:15:25.445Z,100761.59
2022-12-31T03:18:57.319Z,100766.97
2022-12-31T03:22:18.478Z,100766.47
2022-12-31T03:25:38.302Z,100770.38
2022-12-31T03:28:48.060Z,100765.19
2022-12-31T03:31:52.366Z,100772.81
2022-12-31T03:34:57.503Z,100773.34
2022-12-31T03:38:01.114Z,100783.19
2022-12-31T03:41:04.990Z,100786.69
2022-12-31T03:44:08.627Z,100789.84
2022-12-31T03:47:12.312Z,100780.38
2022-12-31T03:50:19.606Z,100774.31
2022-12-31T03:53:23.266Z,100781.38
2022-12-31T03:56:26.884Z,100777.69
2022-12-31T03:59:30.580Z,100778.72
2022-12-31T04:02:34.519Z,100769.78
2022-12-31T04:05:39.638Z,100769.00
2022-12-31T04:08:43.373Z,100771.75
2022-12-31T04:11:47.129Z,100771.38
2022-12-31T04:14:50.697Z,100779.00
2022-12-31T04:17:54.237Z,100784.81
2022-12-31T04:21:03.443Z,100783.78
2022-12-31T04:24:07.768Z,100789.25
2022-12-31T04:27:11.479Z,100787.56
2022-12-31T04:30:15.901Z,100790.41
2022-12-31T04:33:19.580Z,100780.56
2022-12-31T04:36:24.636Z,100785.56
2022-12-31T04:39:28.804Z,100787.34
2022-12-31T04:42:32.402Z,100785.66
2022-12-31T04:45:35.974Z,100786.03
2022-12-31T04:48:39.489Z,100789.47
2022-12-31T04:51:44.717Z,100782.25
2022-12-31T04:54:48.255Z,100782.84
2022-12-31T04:57:51.978Z,100790.94
2022-12-31T05:00:56.768Z,100792.41
2022-12-31T05:04:00.589Z,100798.59
2022-12-31T05:07:05.690Z,100792.69
2022-12-31T05:10:09.868Z,100795.78
2022-12-31T05:13:16.172Z,100801.34
2022-12-31T05:16:19.910Z,100802.00
2022-12-31T05:19:23.667Z,100804.25
2022-12-31T05:22:31.361Z,100816.75
2022-12-31T05:25:35.643Z,100823.59
2022-12-31T05:28:39.267Z,100827.19
2022-12-31T05:31:42.895Z,100828.28
2022-12-31T05:34:46.634Z,100831.00
2022-12-31T05:37:51.720Z,100835.09
2022-12-31T05:41:01.419Z,100831.53
2022-12-31T05:44:05.165Z,100836.13
2022-12-31T05:47:08.836Z,100843.31
2022-12-31T05:50:15.653Z,100846.09
2022-12-31T05:53:20.657Z,100852.66
2022-12-31T05:56:24.351Z,100855.19
2022-12-31T05:59:27.972Z,100858.97
2022-12-31T06:02:31.611Z,100857.03
2022-12-31T06:05:35.217Z,100860.88
2022-12-31T06:08:40.830Z,100861.34
2022-12-31T06:11:44.425Z,100860.78
2022-12-31T06:14:48.163Z,100860.66
2022-12-31T06:17:51.814Z,100868.13
2022-12-31T06:20:59.722Z,100868.28
2022-12-31T06:24:04.986Z,100867.19
2022-12-31T06:27:08.623Z,100864.94
2022-12-31T06:30:13.538Z,100867.47
2022-12-31T06:33:17.287Z,100878.69
2022-12-31T06:36:22.155Z,100881.38
2022-12-31T06:39:27.716Z,100881.31
2022-12-31T06:42:32.183Z,100889.31
2022-12-31T06:45:35.779Z,100893.00
2022-12-31T06:48:42.179Z,100889.22
2022-12-31T06:51:48.156Z,100894.94
2022-12-31T06:54:53.790Z,100903.53
2022-12-31T06:57:58.228Z,100903.59
2022-12-31T07:01:14.425Z,100907.03
2022-12-31T07:04:49.858Z,100910.63
2022-12-31T07:08:04.258Z,100905.75
2022-12-31T07:11:15.698Z,100901.22
2022-12-31T07:14:30.496Z,100903.13
2022-12-31T07:17:46.320Z,100904.53
2022-12-31T07:20:50.649Z,100911.28
2022-12-31T07:23:55.014Z,100919.34
2022-12-31T07:27:14.368Z,100914.84
2022-12-31T07:30:22.146Z,100918.34
2022-12-31T07:33:37.877Z,100936.50
2022-12-31T07:37:02.967Z,100939.16
2022-12-31T07:40:18.456Z,100937.13
2022-12-31T07:43:31.999Z,100930.34
2022-12-31T07:46:41.592Z,100935.41
2022-12-31T07:49:46.136Z,100936.28
2022-12-31T07:52:50.688Z,100941.31
2022-12-31T07:55:58.156Z,100945.16
2022-12-31T07:59:24.278Z,100945.44
2022-12-31T08:02:48.427Z,100950.34
2022-12-31T08:06:01.036Z,100940.56
2022-12-31T08:09:13.410Z,100946.63
2022-12-31T08:12:17.462Z,100948.44
2022-12-31T08:15:30.028Z,100944.44
2022-12-31T08:18:34.752Z,100955.16
2022-12-31T08:21:48.007Z,100954.69
2022-12-31T08:25:05.744Z,100957.78
2022-12-31T08:28:20.226Z,100960.16
2022-12-31T08:31:35.299Z,100964.78
2022-12-31T08:34:49.739Z,100958.41
2022-12-31T08:38:02.107Z,100971.53
2022-12-31T08:41:15.325Z,100968.88
2022-12-31T08:44:29.968Z,100961.19
2022-12-31T08:47:47.367Z,100951.50
2022-12-31T08:50:51.589Z,100963.97
2022-12-31T08:53:56.586Z,100956.44
2022-12-31T08:57:14.845Z,100950.41
2022-12-31T09:00:21.503Z,100951.34
2022-12-31T09:03:36.376Z,100949.38
2022-12-31T09:06:48.288Z,100936.16
2022-12-31T09:10:04.798Z,100939.69
2022-12-31T09:13:17.106Z,100931.34
2022-12-31T09:16:29.133Z,100920.88
2022-12-31T09:19:34.289Z,100924.53
2022-12-31T09:22:38.349Z,100927.59
2022-12-31T09:25:48.594Z,100922.66
2022-12-31T09:29:00.117Z,100916.81
2022-12-31T09:32:15.795Z,100915.84
2022-12-31T09:35:32.322Z,100902.88
2022-12-31T09:38:43.368Z,100901.22
2022-12-31T09:42:20.868Z,100896.34
2022-12-31T09:45:56.747Z,100883.06
2022-12-31T09:49:46.432Z,100881.91
2022-12-31T09:53:10.822Z,100875.63
2022-12-31T09:56:22.398Z,100874.59
2022-12-31T09:59:33.308Z,100876.25
2022-12-31T10:02:54.441Z,100874.19
2022-12-31T10:06:21.594Z,100862.56
2022-12-31T10:09:41.091Z,100864.50
2022-12-31T10:13:13.098Z,100861.50
2022-12-31T10:16:51.191Z,100851.50
2022-12-31T10:20:21.684Z,100844.34
2022-12-31T10:23:50.108Z,100839.88
2022-12-31T10:27:30.214Z,100835.53
2022-12-31T10:30:36.573Z,100841.03
2022-12-31T10:33:46.212Z,100833.00
2022-12-31T10:36:59.825Z,100832.72
2022-12-31T10:40:22.833Z,100819.28
2022-12-31T10:44:02.488Z,100809.00
2022-12-31T10:47:37.826Z,100816.94
2022-12-31T10:51:06.587Z,100805.59
2022-12-31T10:54:30.376Z,100802.97
2022-12-31T10:58:04.048Z,100805.78
2022-12-31T11:01:18.139Z,100802.25
2022-12-31T11:04:54.125Z,100799.09
2022-12-31T11:08:21.547Z,100794.34
2022-12-31T11:11:39.010Z,100786.28
2022-12-31T11:15:07.395Z,100779.94
2022-12-31T11:18:23.128Z,100779.53
2022-12-31T11:21:43.911Z,100774.94
2022-12-31T11:25:20.985Z,100775.41
2022-12-31T11:28:57.236Z,100764.47
2022-12-31T11:32:34.099Z,100762.47
2022-12-31T11:35:58.477Z,100766.44
2022-12-31T11:39:31.115Z,100763.41
2022-12-31T11:42:45.777Z,100753.31
2022-12-31T11:46:10.921Z,100747.53
2022-12-31T11:49:37.019Z,100751.78
2022-12-31T11:52:56.429Z,100758.69
2022-12-31T11:56:13.018Z,100757.09
2022-12-31T11:59:19.590Z,100757.69
2022-12-31T12:02:28.552Z,100746.75
2022-12-31T12:05:33.870Z,100749.09
2022-12-31T12:08:40.079Z,100752.94
2022-12-31T12:11:43.918Z,100750.31
2022-12-31T12:14:53.399Z,100745.13
2022-12-31T12:18:00.031Z,100742.19
2022-12-31T12:21:08.395Z,100745.16
2022-12-31T12:24:21.794Z,100740.03
2022-12-31T12:27:30.045Z,100743.00
2022-12-31T12:30:41.538Z,100747.00
2022-12-31T12:33:47.617Z,100750.16
2022-12-31T12:36:51.538Z,100742.53
2022-12-31T12:40:01.221Z,100744.75
2022-12-31T12:43:05.458Z,100749.44
2022-12-31T12:46:21.703Z,100751.66
2022-12-31T12:49:28.550Z,100749.81
2022-12-31T12:53:08.294Z,100747.19
2022-12-31T12:56:30.730Z,100747.44
2022-12-31T12:59:59.217Z,100745.09
2022-12-31T13:03:36.224Z,100749.84
2022-12-31T13:06:56.228Z,100749.22
2022-12-31T13:10:18.660Z,100750.69
2022-12-31T13:13:35.057Z,100749.19
2022-12-31T13:16:44.800Z,100752.34
2022-12-31T13:19:54.355Z,100752.34
2022-12-31T13:23:03.878Z,100758.47
2022-12-31T13:26:12.271Z,100762.97
2022-12-31T13:29:21.118Z,100766.19
2022-12-31T13:32:34.101Z,100765.00
2022-12-31T13:35:46.023Z,100768.31
2022-12-31T13:38:52.819Z,100770.72
2022-12-31T13:42:02.744Z,100772.75
2022-12-31T13:45:15.049Z,100776.34
2022-12-31T13:48:26.167Z,100780.13
2022-12-31T13:51:41.589Z,100783.16
2022-12-31T13:54:54.385Z,100788.13
2022-12-31T13:58:07.285Z,100791.72
2022-12-31T14:01:17.665Z,100791.19
2022-12-31T14:04:29.081Z,100790.00
2022-12-31T14:07:45.413Z,100796.31
2022-12-31T14:11:00.924Z,100804.09
2022-12-31T14:14:17.018Z,100800.69
2022-12-31T14:17:28.324Z,100804.63
2022-12-31T14:20:44.224Z,100814.53
2022-12-31T14:23:54.399Z,100811.66
2022-12-31T14:27:01.686Z,100812.19
2022-12-31T14:30:07.993Z,100807.81
2022-12-31T14:33:27.737Z,100806.25
2022-12-31T14:36:42.365Z,100813.34
2022-12-31T14:39:54.347Z,100816.69
2022-12-31T14:43:18.814Z,100819.88
2022-12-31T14:46:31.405Z,100819.34
2022-12-31T14:49:48.252Z,100809.22
2022-12-31T14:52:54.806Z,100815.47
2022-12-31T14:55:59.939Z,100813.66
2022-12-31T14:59:04.371Z,100806.91
2022-12-31T15:02:30.306Z,100813.94
2022-12-31T15:05:37.708Z,100815.44
2022-12-31T15:08:55.005Z,100815.97
2022-12-31T15:12:23.608Z,100822.31
2022-12-31T15:16:11.416Z,100817.88
2022-12-31T15:19:52.211Z,100819.75
2022-12-31T15:22:57.912Z,100814.09
2022-12-31T15:26:04.380Z,100818.22
2022-12-31T15:29:20.976Z,100813.94
2022-12-31T15:32:33.065Z,100817.50
2022-12-31T15:35:48.026Z,100821.91
2022-12-31T15:39:04.699Z,100827.00
2022-12-31T15:42:39.192Z,100825.31
2022-12-31T15:45:46.690Z,100827.94
2022-12-31T15:48:56.561Z,100821.66
2022-12-31T15:52:06.278Z,100824.13
2022-12-31T15:55:22.039Z,100834.47
2022-12-31T15:58:29.405Z,100829.22
2022-12-31T16:01:36.463Z,100836.78
2022-12-31T16:04:44.639Z,100840.31
2022-12-31T16:07:48.791Z,100841.41
2022-12-31T16:10:56.043Z,100843.72
2022-12-31T16:14:00.702Z,100847.28
2022-12-31T16:17:05.529Z,100859.75
2022-12-31T16:20:25.397Z,100856.56
2022-12-31T16:23:29.639Z,100863.59
2022-12-31T16:26:44.027Z,100868.50
2022-12-31T16:29:55.801Z,100872.69
2022-12-31T16:33:02.374Z,100874.00
2022-12-31T16:36:06.655Z,100876.28
2022-12-31T16:39:31.974Z,100881.03
2022-12-31T16:42:44.486Z,100883.78
2022-12-31T16:45:48.768Z,100880.59
2022-12-31T16:48:57.126Z,100886.28
2022-12-31T16:52:04.945Z,100891.53
2022-12-31T16:55:10.399Z,100891.78
2022-12-31T16:58:23.410Z,100894.06
2022-12-31T17:01:31.832Z,100895.13
2022-12-31T17:04:37.750Z,100901.78
2022-12-31T17:07:45.364Z,100898.69
2022-12-31T17:10:49.195Z,100904.09
2022-12-31T17:13:59.245Z,100911.44
2022-12-31T17:17:05.507Z,100906.81
2022-12-31T17:20:10.759Z,100913.88
2022-12-31T17:23:24.556Z,100923.88
2022-12-31T17:26:29.910Z,100918.91
2022-12-31T17:29:35.809Z,100927.69
2022-12-31T17:32:40.200Z,100933.66
2022-12-31T17:35:46.115Z,100934.94
2022-12-31T17:38:50.021Z,100937.09
2022-12-31T17:41:57.316Z,100946.03
2022-12-31T17:45:05.302Z,100944.94
2022-12-31T17:48:12.251Z,100948.38
2022-12-31T17:51:16.016Z,100952.88
2022-12-31T17:54:27.907Z,100957.41
2022-12-31T17:57:31.788Z,100959.63
2022-12-31T18:00:38.865Z,100966.66
2022-12-31T18:03:42.780Z,100970.34
2022-12-31T18:06:47.086Z,100962.75
2022-12-31T18:09:51.005Z,100977.72
2022-12-31T18:12:55.229Z,100981.78
2022-12-31T18:16:00.645Z,100982.53
2022-12-31T18:19:04.489Z,100973.22
2022-12-31T18:22:08.437Z,100976.16
2022-12-31T18:25:15.597Z,100984.72
2022-12-31T18:28:19.416Z,100990.22
2022-12-31T18:31:27.633Z,100998.41
2022-12-31T18:34:31.538Z,101005.06
2022-12-31T18:37:36.869Z,101005.94
2022-12-31T18:40:46.869Z,101006.41
2022-12-31T18:43:52.101Z,101003.81
2022-12-31T18:46:57.475Z,101011.25
2022-12-31T18:50:01.385Z,101004.56
2022-12-31T18:53:05.581Z,101005.63
2022-12-31T18:56:14.122Z,101010.63
2022-12-31T18:59:17.934Z,100997.59
2022-12-31T19:02:23.292Z,100998.66
2022-12-31T19:05:30.706Z,101007.72
2022-12-31T19:08:34.440Z,101002.13
2022-12-31T19:11:38.366Z,101002.66
2022-12-31T19:14:42.215Z,101008.28
2022-12-31T19:17:47.531Z,101013.47
2022-12-31T19:20:53.119Z,101012.47
2022-12-31T19:23:56.948Z,101017.94
2022-12-31T19:27:02.908Z,101018.56
2022-12-31T19:30:13.417Z,101017.47
2022-12-31T19:33:18.850Z,101021.06
2022-12-31T19:36:22.657Z,101023.19
2022-12-31T19:39:26.470Z,101020.69
2022-12-31T19:42:30.375Z,101027.34
2022-12-31T19:45:34.629Z,101019.25
2022-12-31T19:48:40.087Z,101014.41
2022-12-31T19:51:44.569Z,101023.22
2022-12-31T19:54:48.483Z,101020.84
2022-12-31T19:57:52.774Z,101015.25
2022-12-31T20:01:02.834Z,101025.09
2022-12-31T20:04:08.896Z,101015.84
2022-12-31T20:07:12.782Z,101009.47
2022-12-31T20:10:16.648Z,101010.63
2022-12-31T20:13:20.421Z,101018.97
2022-12-31T20:16:27.055Z,101017.66
2022-12-31T20:19:32.461Z,101016.63
2022-12-31T20:22:36.315Z,101018.38
2022-12-31T20:25:40.118Z,101021.75
2022-12-31T20:28:43.988Z,101022.38
2022-12-31T20:31:47.920Z,101028.00
2022-12-31T20:34:53.415Z,101026.03
2022-12-31T20:37:57.698Z,101026.63
2022-12-31T20:41:05.603Z,101023.81
2022-12-31T20:44:09.539Z,101035.50
2022-12-31T20:47:13.557Z,101030.63
2022-12-31T20:50:19.035Z,101031.13
2022-12-31T20:53:22.990Z,101026.44
2022-12-31T20:56:28.773Z,101039.50
2022-12-31T20:59:33.195Z,101044.22
2022-12-31T21:02:42.639Z,101057.75
2022-12-31T21:05:53.097Z,101064.59
2022-12-31T21:08:57.969Z,101063.66
2022-12-31T21:12:19.255Z,101074.50
2022-12-31T21:15:23.281Z,101068.25
2022-12-31T21:18:27.229Z,101065.91
2022-12-31T21:21:32.801Z,101074.72
2022-12-31T21:24:36.593Z,101073.03
2022-12-31T21:27:40.656Z,101073.88
2022-12-31T21:30:44.506Z,101074.06
2022-12-31T21:33:48.873Z,101074.78
2022-12-31T21:36:54.181Z,101075.44
2022-12-31T21:39:58.134Z,101083.59
2022-12-31T21:43:02.045Z,101074.78
2022-12-31T21:46:07.765Z,101064.06
2022-12-31T21:49:11.759Z,101072.97
2022-12-31T21:52:30.855Z,101080.34
2022-12-31T21:55:51.964Z,101077.06
2022-12-31T21:59:15.208Z,101066.72
2022-12-31T22:02:36.301Z,101070.59
2022-12-31T22:05:46.431Z,101063.59
2022-12-31T22:08:53.231Z,101066.59
2022-12-31T22:11:57.061Z,101063.06
2022-12-31T22:15:14.914Z,101064.75
2022-12-31T22:18:20.221Z,101069.59
2022-12-31T22:21:26.878Z,101074.16
2022-12-31T22:24:32.112Z,101070.44
2022-12-31T22:27:36.050Z,101071.53
2022-12-31T22:30:39.963Z,101077.66
2022-12-31T22:33:43.933Z,101075.75
2022-12-31T22:36:47.879Z,101071.03
2022-12-31T22:39:53.199Z,101068.63
2022-12-31T22:42:57.370Z,101072.88
2022-12-31T22:46:06.680Z,101075.00
2022-12-31T22:49:12.048Z,101069.28
2022-12-31T22:52:15.831Z,101062.97
2022-12-31T22:55:21.033Z,101060.84
2022-12-31T22:58:25.487Z,101059.19
2022-12-31T23:01:29.133Z,101065.88
2022-12-31T23:04:33.203Z,101067.00
2022-12-31T23:07:37.004Z,101063.78
2022-12-31T23:10:59.685Z,101069.16
2022-12-31T23:14:21.717Z,101074.13
2022-12-31T23:17:44.889Z,101070.88
2022-12-31T23:21:06.129Z,101076.56
2022-12-31T23:24:18.078Z,101071.75
2022-12-31T23:27:25.616Z,101072.34
2022-12-31T23:30:29.667Z,101078.31
2022-12-31T23:33:33.470Z,101075.47
2022-12-31T23:36:37.227Z,101070.44
2022-12-31T23:39:41.180Z,101069.88
2022-12-31T23:42:46.471Z,101066.63
2022-12-31T23:45:50.884Z,101073.34
2022-12-31T23:48:54.893Z,101064.78
2022-12-31T23:51:58.693Z,101073.34
2022-12-31T23:55:03.949Z,101076.31
2022-12-31T23:58:09.136Z,101068.91
